createdAt,value
2022-09-03T00:01:25.403Z,1.10
2022-09-03T00:04:01.918Z,1.00
2022-09-03T00:06:38.198Z,1.30
2022-09-03T00:09:29.732Z,1.00
2022-09-03T00:12:05.231Z,1.10
2022-09-03T00:14:40.187Z,1.10
2022-09-03T00:17:32.384Z,0.90
2022-09-03T00:20:12.130Z,1.00
2022-09-03T00:22:52.031Z,1.00
2022-09-03T00:25:25.056Z,0.90
2022-09-03T00:27:57.618Z,0.90
2022-09-03T00:30:24.779Z,0.90
2022-09-03T00:33:05.753Z,0.93
2022-09-03T00:35:43.375Z,1.00
2022-09-03T00:38:10.136Z,1.20
2022-09-03T00:41:06.882Z,0.83
2022-09-03T00:44:05.226Z,0.87
2022-09-03T00:46:48.867Z,0.70
2022-09-03T00:49:29.369Z,0.93
2022-09-03T00:52:11.306Z,0.83
2022-09-03T00:55:10.149Z,0.80
2022-09-03T00:58:08.517Z,1.00
2022-09-03T01:00:43.578Z,0.77
2022-09-03T01:03:17.085Z,0.90
2022-09-03T01:06:03.522Z,0.87
2022-09-03T01:08:46.572Z,0.80
2022-09-03T01:11:49.265Z,0.83
2022-09-03T01:14:48.066Z,0.80
2022-09-03T01:17:17.637Z,0.70
2022-09-03T01:20:03.241Z,0.80
2022-09-03T01:22:42.133Z,0.90
2022-09-03T01:25:17.764Z,0.90
2022-09-03T01:28:13.409Z,0.90
2022-09-03T01:30:48.295Z,1.10
2022-09-03T01:33:35.464Z,0.70
2022-09-03T01:36:11.094Z,0.97
2022-09-03T01:38:52.655Z,1.33
2022-09-03T01:42:10.545Z,1.10
2022-09-03T01:44:53.930Z,0.90
2022-09-03T01:47:26.519Z,0.70
2022-09-03T01:50:05.418Z,0.80
2022-09-03T01:52:50.721Z,0.90
2022-09-03T01:55:57.971Z,0.80
2022-09-03T01:58:35.042Z,0.73
2022-09-03T02:01:18.262Z,0.80
2022-09-03T02:03:46.996Z,0.63
2022-09-03T02:06:13.989Z,0.70
2022-09-03T02:08:41.841Z,0.90
2022-09-03T02:11:09.947Z,0.70
2022-09-03T02:13:43.877Z,0.80
2022-09-03T02:16:14.782Z,0.83
2022-09-03T02:18:51.682Z,0.70
2022-09-03T02:21:21.291Z,0.77
2022-09-03T02:23:49.303Z,0.80
2022-09-03T02:26:21.625Z,0.60
2022-09-03T02:28:49.501Z,0.70
2022-09-03T02:31:16.368Z,0.60
2022-09-03T02:33:46.257Z,0.60
2022-09-03T02:36:16.584Z,0.80
2022-09-03T02:38:45.717Z,0.60
2022-09-03T02:41:14.084Z,0.70
2022-09-03T02:43:52.199Z,0.90
2022-09-03T02:46:25.578Z,0.70
2022-09-03T02:48:53.400Z,0.70
2022-09-03T02:51:20.162Z,0.80
2022-09-03T02:53:47.006Z,0.80
2022-09-03T02:56:13.965Z,0.70
2022-09-03T02:58:41.282Z,0.80
2022-09-03T03:01:08.241Z,0.70
2022-09-03T03:03:35.199Z,0.90
2022-09-03T03:06:05.409Z,0.77
2022-09-03T03:08:34.787Z,0.73
2022-09-03T03:11:01.982Z,0.60
2022-09-03T03:13:30.453Z,0.80
2022-09-03T03:16:02.415Z,0.60
2022-09-03T03:18:29.944Z,0.53
2022-09-03T03:20:56.622Z,0.73
2022-09-03T03:23:23.753Z,0.70
2022-09-03T03:25:50.469Z,0.80
2022-09-03T03:28:20.305Z,0.90
2022-09-03T03:30:48.574Z,1.00
2022-09-03T03:33:15.613Z,0.73
2022-09-03T03:35:42.710Z,0.80
2022-09-03T03:38:10.008Z,0.83
2022-09-03T03:40:38.788Z,0.80
2022-09-03T03:43:23.928Z,0.60
2022-09-03T03:46:00.354Z,0.60
2022-09-03T03:48:27.377Z,0.80
2022-09-03T03:50:54.232Z,0.70
2022-09-03T03:53:21.084Z,0.80
2022-09-03T03:55:58.794Z,0.70
2022-09-03T03:58:26.510Z,0.90
2022-09-03T04:00:53.535Z,0.90
2022-09-03T04:03:21.246Z,0.80
2022-09-03T04:05:59.184Z,0.70
2022-09-03T04:08:26.702Z,0.60
2022-09-03T04:10:54.281Z,0.67
2022-09-03T04:13:21.000Z,0.80
2022-09-03T04:15:47.740Z,0.83
2022-09-03T04:18:14.442Z,0.77
2022-09-03T04:20:41.204Z,0.70
2022-09-03T04:23:08.206Z,0.80
2022-09-03T04:25:34.886Z,0.70
2022-09-03T04:28:04.733Z,0.60
2022-09-03T04:30:32.070Z,1.03
2022-09-03T04:32:59.775Z,0.70
2022-09-03T04:35:30.065Z,0.70
2022-09-03T04:37:57.921Z,0.70
2022-09-03T04:40:24.833Z,0.80
2022-09-03T04:42:56.221Z,0.80
2022-09-03T04:45:22.982Z,0.80
2022-09-03T04:48:03.781Z,0.77
2022-09-03T04:50:32.961Z,0.70
2022-09-03T04:53:07.063Z,0.77
2022-09-03T04:55:36.682Z,0.70
2022-09-03T04:58:04.401Z,0.70
2022-09-03T05:00:31.249Z,0.53
2022-09-03T05:03:00.863Z,0.80
2022-09-03T05:05:27.753Z,0.60
2022-09-03T05:07:58.457Z,0.53
2022-09-03T05:10:25.193Z,0.77
2022-09-03T05:13:04.746Z,0.77
2022-09-03T05:15:33.017Z,0.80
2022-09-03T05:18:01.936Z,0.90
2022-09-03T05:20:30.106Z,0.87
2022-09-03T05:22:57.576Z,0.80
2022-09-03T05:25:25.062Z,0.70
2022-09-03T05:27:51.793Z,0.70
2022-09-03T05:30:19.080Z,0.90
2022-09-03T05:32:45.992Z,0.83
2022-09-03T05:35:12.736Z,0.80
2022-09-03T05:37:39.991Z,0.70
2022-09-03T05:40:08.778Z,0.70
2022-09-03T05:42:37.873Z,0.70
2022-09-03T05:45:10.895Z,0.70
2022-09-03T05:47:39.721Z,0.77
2022-09-03T05:50:08.718Z,0.80
2022-09-03T05:52:36.414Z,0.90
2022-09-03T05:55:04.217Z,0.87
2022-09-03T05:57:31.017Z,0.73
2022-09-03T05:59:57.834Z,0.83
2022-09-03T06:02:24.792Z,0.70
2022-09-03T06:04:51.561Z,0.70
2022-09-03T06:07:18.325Z,0.57
2022-09-03T06:09:45.301Z,0.70
2022-09-03T06:12:12.018Z,0.80
2022-09-03T06:14:38.812Z,0.67
2022-09-03T06:17:05.745Z,0.70
2022-09-03T06:19:32.434Z,0.60
2022-09-03T06:21:59.433Z,0.80
2022-09-03T06:24:28.321Z,0.80
2022-09-03T06:26:56.496Z,0.70
2022-09-03T06:29:23.453Z,0.60
2022-09-03T06:31:50.737Z,0.80
2022-09-03T06:34:22.663Z,0.70
2022-09-03T06:36:49.537Z,0.67
2022-09-03T06:39:16.759Z,0.60
2022-09-03T06:41:44.809Z,0.60
2022-09-03T06:44:12.266Z,0.70
2022-09-03T06:46:42.499Z,0.70
2022-09-03T06:49:10.916Z,0.70
2022-09-03T06:51:38.970Z,0.80
2022-09-03T06:56:54.838Z,0.80
2022-09-03T06:59:21.523Z,0.70
2022-09-03T07:01:48.416Z,0.90
2022-09-03T07:04:20.347Z,0.80
2022-09-03T07:06:47.838Z,0.67
2022-09-03T07:09:15.717Z,0.70
2022-09-03T07:11:47.993Z,0.60
2022-09-03T07:14:17.453Z,0.70
2022-09-03T07:16:44.473Z,0.80
2022-09-03T07:19:13.332Z,0.93
2022-09-03T07:21:44.049Z,0.70
2022-09-03T07:24:15.296Z,0.80
2022-09-03T07:26:47.201Z,0.90
2022-09-03T07:29:16.045Z,0.70
2022-09-03T07:31:43.813Z,0.73
2022-09-03T07:34:12.924Z,0.70
2022-09-03T07:36:46.875Z,0.70
2022-09-03T07:39:17.948Z,0.80
2022-09-03T07:41:46.090Z,0.67
2022-09-03T07:44:15.413Z,0.80
2022-09-03T07:46:43.580Z,0.87
2022-09-03T07:49:11.286Z,0.80
2022-09-03T07:51:38.945Z,0.93
2022-09-03T07:54:09.213Z,0.80
2022-09-03T07:56:36.968Z,0.80
2022-09-03T07:59:04.605Z,0.70
2022-09-03T08:01:33.048Z,1.00
2022-09-03T08:04:01.560Z,0.87
2022-09-03T08:06:30.049Z,0.87
2022-09-03T08:09:04.450Z,0.90
2022-09-03T08:11:33.231Z,0.80
2022-09-03T08:14:03.116Z,0.90
2022-09-03T08:16:36.545Z,0.83
2022-09-03T08:19:04.068Z,0.73
2022-09-03T08:21:31.289Z,0.83
2022-09-03T08:24:03.089Z,0.90
2022-09-03T08:26:32.250Z,0.90
2022-09-03T08:28:59.856Z,0.80
2022-09-03T08:31:29.241Z,0.90
2022-09-03T08:33:58.998Z,0.87
2022-09-03T08:36:29.934Z,0.90
2022-09-03T08:39:04.805Z,1.00
2022-09-03T08:41:40.823Z,0.80
2022-09-03T08:44:42.240Z,0.80
2022-09-03T08:47:29.801Z,0.80
2022-09-03T08:50:35.334Z,0.97
2022-09-03T08:53:14.678Z,0.87
2022-09-03T08:55:50.671Z,0.80
2022-09-03T08:58:29.562Z,0.90
2022-09-03T09:01:04.206Z,1.07
2022-09-03T09:03:56.803Z,0.80
2022-09-03T09:06:44.883Z,1.10
2022-09-03T09:09:28.306Z,1.13
2022-09-03T09:12:20.481Z,0.90
2022-09-03T09:14:58.173Z,1.03
2022-09-03T09:17:27.955Z,0.97
2022-09-03T09:20:07.012Z,0.90
2022-09-03T09:22:41.882Z,1.20
2022-09-03T09:25:19.224Z,1.10
2022-09-03T09:28:03.018Z,1.10
2022-09-03T09:30:31.653Z,1.30
2022-09-03T09:33:00.609Z,1.10
2022-09-03T09:35:27.617Z,1.10
2022-09-03T09:37:57.760Z,1.10
2022-09-03T09:40:41.444Z,1.10
2022-09-03T09:43:17.346Z,1.08
2022-09-03T09:45:50.152Z,1.00
2022-09-03T09:48:32.733Z,1.30
2022-09-03T09:51:18.752Z,1.00
2022-09-03T09:53:45.522Z,1.00
2022-09-03T09:56:24.617Z,1.05
2022-09-03T09:59:03.498Z,1.00
2022-09-03T10:01:31.957Z,0.90
2022-09-03T10:04:12.309Z,1.00
2022-09-03T10:06:56.694Z,0.90
2022-09-03T10:09:31.538Z,1.08
2022-09-03T10:12:19.642Z,1.08
2022-09-03T10:15:03.778Z,0.80
2022-09-03T10:17:53.622Z,0.70
2022-09-03T10:20:38.949Z,1.00
2022-09-03T10:23:21.194Z,1.10
2022-09-03T10:26:07.600Z,0.90
2022-09-03T10:28:41.128Z,0.98
2022-09-03T10:31:30.067Z,0.95
2022-09-03T10:34:06.524Z,0.93
2022-09-03T10:36:59.770Z,1.00
2022-09-03T10:39:51.662Z,0.88
2022-09-03T10:42:35.081Z,0.60
2022-09-03T10:45:12.252Z,1.05
2022-09-03T10:48:00.958Z,0.98
2022-09-03T10:50:31.926Z,0.90
2022-09-03T10:53:23.368Z,0.90
2022-09-03T10:56:14.928Z,0.80
2022-09-03T10:58:58.765Z,1.10
2022-09-03T11:01:38.066Z,0.95
2022-09-03T11:04:16.899Z,1.20
2022-09-03T11:06:59.557Z,0.88
2022-09-03T11:09:55.079Z,1.02
2022-09-03T11:12:29.427Z,1.05
2022-09-03T11:15:05.472Z,0.90
2022-09-03T11:17:47.240Z,0.88
2022-09-03T11:20:23.707Z,1.08
2022-09-03T11:22:54.358Z,0.90
2022-09-03T11:25:32.442Z,0.82
2022-09-03T11:28:19.319Z,1.15
2022-09-03T11:31:24.025Z,1.00
2022-09-03T11:34:01.573Z,0.63
2022-09-03T11:36:35.412Z,1.00
2022-09-03T11:39:18.022Z,1.05
2022-09-03T11:41:57.429Z,0.88
2022-09-03T11:44:24.381Z,1.00
2022-09-03T11:46:58.855Z,0.90
2022-09-03T11:49:29.968Z,0.68
2022-09-03T11:52:09.882Z,0.90
2022-09-03T11:54:45.637Z,0.90
2022-09-03T11:57:23.809Z,1.05
2022-09-03T11:59:50.525Z,0.73
2022-09-03T12:02:30.949Z,0.60
2022-09-03T12:05:35.593Z,0.80
2022-09-03T12:08:40.641Z,1.00
2022-09-03T12:11:35.957Z,0.80
2022-09-03T12:14:14.184Z,0.82
2022-09-03T12:17:06.699Z,0.80
2022-09-03T12:19:45.327Z,1.00
2022-09-03T12:22:16.940Z,0.90
2022-09-03T12:24:45.139Z,0.93
2022-09-03T12:27:26.785Z,0.80
2022-09-03T12:30:00.507Z,0.80
2022-09-03T12:32:32.223Z,0.80
2022-09-03T12:35:14.385Z,0.70
2022-09-03T12:40:32.804Z,0.70
2022-09-03T12:46:17.627Z,0.52
2022-09-03T12:52:05.973Z,0.43
2022-09-03T12:54:36.871Z,0.70
2022-09-03T12:57:04.300Z,0.57
2022-09-03T12:59:35.466Z,0.60
2022-09-03T13:02:13.731Z,0.60
2022-09-03T13:04:42.632Z,0.75
2022-09-03T13:07:21.364Z,0.73
2022-09-03T13:09:49.099Z,0.70
2022-09-03T13:12:33.351Z,0.80
2022-09-03T13:15:07.702Z,0.80
2022-09-03T13:18:08.663Z,0.63
2022-09-03T13:20:47.470Z,0.70
2022-09-03T13:23:49.106Z,0.60
2022-09-03T13:26:27.420Z,0.68
2022-09-03T13:29:18.010Z,0.60
2022-09-03T13:32:06.145Z,0.60
2022-09-03T13:34:50.463Z,0.63
2022-09-03T13:37:32.386Z,0.50
2022-09-03T13:40:09.937Z,0.60
2022-09-03T13:42:41.549Z,0.70
2022-09-03T13:45:52.539Z,0.65
2022-09-03T13:49:02.179Z,0.60
2022-09-03T13:51:31.207Z,0.52
2022-09-03T13:54:47.691Z,0.60
2022-09-03T13:57:41.444Z,0.90
2022-09-03T14:00:11.656Z,1.17
2022-09-03T14:02:57.215Z,0.70
2022-09-03T14:05:26.976Z,0.65
2022-09-03T14:08:08.105Z,0.70
2022-09-03T14:10:40.934Z,0.70
2022-09-03T14:13:39.429Z,0.70
2022-09-03T14:16:08.532Z,0.60
2022-09-03T14:18:45.062Z,0.60
2022-09-03T14:21:45.311Z,0.50
2022-09-03T14:24:26.697Z,0.88
2022-09-03T14:27:02.336Z,0.70
2022-09-03T14:29:32.286Z,0.85
2022-09-03T14:32:04.584Z,0.75
2022-09-03T14:34:41.847Z,0.63
2022-09-03T14:37:46.255Z,0.75
2022-09-03T14:40:45.037Z,0.60
2022-09-03T14:43:28.020Z,0.60
2022-09-03T14:46:06.337Z,0.80
2022-09-03T14:48:53.196Z,0.60
2022-09-03T14:51:32.538Z,0.70
2022-09-03T14:54:30.778Z,0.60
2022-09-03T14:57:00.922Z,0.63
2022-09-03T15:00:04.818Z,0.70
2022-09-03T15:02:34.896Z,0.70
2022-09-03T15:05:26.949Z,0.77
2022-09-03T15:08:16.765Z,0.60
2022-09-03T15:11:23.571Z,0.63
2022-09-03T15:14:12.132Z,0.73
2022-09-03T15:16:45.045Z,0.70
2022-09-03T15:19:37.028Z,0.60
2022-09-03T15:22:19.021Z,0.70
2022-09-03T15:24:54.321Z,0.60
2022-09-03T15:27:41.141Z,0.90
2022-09-03T15:30:16.432Z,0.77
2022-09-03T15:33:07.155Z,0.70
2022-09-03T15:35:58.392Z,0.70
2022-09-03T15:38:33.120Z,0.80
2022-09-03T15:41:06.773Z,0.82
2022-09-03T15:43:35.221Z,0.90
2022-09-03T15:46:13.575Z,0.70
2022-09-03T15:48:52.080Z,0.80
2022-09-03T15:51:34.049Z,0.85
2022-09-03T15:54:12.664Z,0.80
2022-09-03T15:57:05.250Z,0.65
2022-09-03T15:59:42.617Z,0.90
2022-09-03T16:02:15.213Z,1.15
2022-09-03T16:05:06.952Z,0.93
2022-09-03T16:07:58.052Z,0.77
2022-09-03T16:10:50.888Z,0.90
2022-09-03T16:13:19.423Z,0.80
2022-09-03T16:16:09.561Z,0.98
2022-09-03T16:19:07.990Z,1.00
2022-09-03T16:21:54.809Z,1.00
2022-09-03T16:24:28.762Z,1.00
2022-09-03T16:27:07.490Z,0.90
2022-09-03T16:29:34.497Z,1.13
2022-09-03T16:32:31.786Z,1.00
2022-09-03T16:35:13.638Z,1.05
2022-09-03T16:38:04.598Z,0.90
2022-09-03T16:40:56.850Z,1.00
2022-09-03T16:43:52.133Z,1.05
2022-09-03T16:46:40.138Z,0.95
2022-09-03T16:49:38.625Z,0.82
2022-09-03T16:52:39.774Z,0.90
2022-09-03T16:55:18.578Z,1.57
2022-09-03T16:58:08.170Z,0.70
2022-09-03T17:01:06.480Z,1.00
2022-09-03T17:04:17.741Z,1.00
2022-09-03T17:06:58.525Z,1.00
2022-09-03T17:10:00.626Z,0.90
2022-09-03T17:13:06.569Z,1.00
2022-09-03T17:15:57.565Z,0.80
2022-09-03T17:18:30.770Z,0.70
2022-09-03T17:21:26.298Z,0.60
2022-09-03T17:24:11.589Z,0.70
2022-09-03T17:26:47.376Z,0.70
2022-09-03T17:29:40.439Z,0.50
2022-09-03T17:32:16.837Z,0.57
2022-09-03T17:35:09.756Z,0.50
2022-09-03T17:37:58.207Z,0.60
2022-09-03T17:40:47.364Z,0.50
2022-09-03T17:43:43.635Z,0.50
2022-09-03T17:46:41.300Z,0.30
2022-09-03T17:49:09.272Z,0.20
2022-09-03T17:51:50.383Z,0.33
2022-09-03T17:54:42.658Z,0.20
2022-09-03T17:57:19.902Z,0.47
2022-09-03T17:59:55.506Z,0.40
2022-09-03T18:02:39.048Z,0.40
2022-09-03T18:05:24.294Z,0.50
2022-09-03T18:08:30.112Z,0.40
2022-09-03T18:11:13.822Z,0.60
2022-09-03T18:13:43.625Z,0.80
2022-09-03T18:16:24.059Z,0.70
2022-09-03T18:18:52.800Z,0.60
2022-09-03T18:21:44.001Z,0.70
2022-09-03T18:24:41.088Z,0.60
2022-09-03T18:27:45.966Z,0.57
2022-09-03T18:30:33.905Z,0.70
2022-09-03T18:33:19.503Z,0.80
2022-09-03T18:36:05.897Z,0.90
2022-09-03T18:38:53.659Z,0.70
2022-09-03T18:41:48.897Z,0.60
2022-09-03T18:45:06.579Z,0.73
2022-09-03T18:48:19.676Z,0.77
2022-09-03T18:51:30.132Z,0.70
2022-09-03T18:55:04.257Z,0.80
2022-09-03T18:58:14.966Z,0.70
2022-09-03T19:01:27.235Z,0.90
2022-09-03T19:04:21.317Z,0.60
2022-09-03T19:07:26.381Z,0.70
2022-09-03T19:10:39.197Z,0.70
2022-09-03T19:13:30.559Z,0.63
2022-09-03T19:16:28.562Z,0.70
2022-09-03T19:19:30.408Z,0.77
2022-09-03T19:22:28.033Z,1.00
2022-09-03T19:25:23.542Z,0.80
2022-09-03T19:28:30.740Z,0.90
2022-09-03T19:31:30.701Z,1.00
2022-09-03T19:34:28.033Z,1.00
2022-09-03T19:37:23.452Z,0.80
2022-09-03T19:40:39.386Z,0.90
2022-09-03T19:43:27.856Z,0.83
2022-09-03T19:46:28.568Z,1.20
2022-09-03T19:49:24.381Z,1.10
2022-09-03T19:52:25.583Z,1.20
2022-09-03T19:55:13.945Z,1.03
2022-09-03T19:58:25.877Z,0.97
2022-09-03T20:01:13.406Z,1.10
2022-09-03T20:04:00.067Z,1.20
2022-09-03T20:06:46.305Z,1.30
2022-09-03T20:09:35.763Z,0.97
2022-09-03T20:12:08.387Z,1.10
2022-09-03T20:14:37.613Z,1.00
2022-09-03T20:17:07.528Z,1.03
2022-09-03T20:19:41.310Z,0.97
2022-09-03T20:22:21.962Z,1.10
2022-09-03T20:25:08.064Z,1.00
2022-09-03T20:27:46.489Z,1.10
2022-09-03T20:30:19.386Z,1.07
2022-09-03T20:32:58.971Z,1.17
2022-09-03T20:35:49.696Z,1.10
2022-09-03T20:38:32.797Z,1.47
2022-09-03T20:41:32.221Z,1.10
2022-09-03T20:44:22.387Z,1.40
2022-09-03T20:47:02.501Z,1.17
2022-09-03T20:49:40.800Z,1.33
2022-09-03T20:52:18.614Z,0.90
2022-09-03T20:55:17.548Z,1.17
2022-09-03T20:58:08.730Z,1.13
2022-09-03T21:00:52.279Z,1.30
2022-09-03T21:03:24.508Z,1.40
2022-09-03T21:06:20.233Z,1.17
2022-09-03T21:08:47.233Z,1.10
2022-09-03T21:11:28.757Z,1.10
2022-09-03T21:14:18.621Z,1.10
2022-09-03T21:17:09.382Z,1.03
2022-09-03T21:20:07.977Z,1.10
2022-09-03T21:23:09.290Z,1.20
2022-09-03T21:25:46.113Z,1.30
2022-09-03T21:28:21.874Z,1.30
2022-09-03T21:30:53.925Z,1.20
2022-09-03T21:33:26.940Z,1.20
2022-09-03T21:36:25.737Z,1.30
2022-09-03T21:39:00.244Z,1.30
2022-09-03T21:41:33.474Z,1.20
2022-09-03T21:44:16.744Z,1.30
2022-09-03T21:46:54.739Z,1.50
2022-09-03T21:49:38.352Z,1.23
2022-09-03T21:52:14.589Z,1.10
2022-09-03T21:54:41.407Z,1.30
2022-09-03T21:57:30.003Z,1.30
2022-09-03T22:00:09.093Z,1.10
2022-09-03T22:02:41.816Z,1.10
2022-09-03T22:05:08.781Z,1.20
2022-09-03T22:07:57.253Z,1.40
2022-09-03T22:10:39.293Z,1.20
2022-09-03T22:13:29.894Z,1.30
2022-09-03T22:16:18.953Z,1.17
2022-09-03T22:18:47.029Z,1.37
2022-09-03T22:21:44.423Z,1.30
2022-09-03T22:24:24.357Z,1.30
2022-09-03T22:27:00.774Z,1.50
2022-09-03T22:29:51.002Z,1.30
2022-09-03T22:32:45.652Z,1.23
2022-09-03T22:35:26.569Z,1.43
2022-09-03T22:38:06.174Z,1.40
2022-09-03T22:40:35.974Z,1.13
2022-09-03T22:43:23.794Z,1.20
2022-09-03T22:46:09.479Z,1.70
2022-09-03T22:48:59.930Z,1.50
2022-09-03T22:51:37.528Z,1.80
2022-09-03T22:54:10.660Z,1.50
2022-09-03T22:56:41.351Z,1.70
2022-09-03T22:59:12.071Z,1.63
2022-09-03T23:01:57.632Z,2.03
2022-09-03T23:04:38.595Z,1.50
2022-09-03T23:07:18.770Z,1.60
2022-09-03T23:09:57.374Z,1.80
2022-09-03T23:12:44.953Z,1.50
2022-09-03T23:15:19.856Z,1.50
2022-09-03T23:17:54.734Z,1.60
2022-09-03T23:20:28.121Z,1.40
2022-09-03T23:23:03.438Z,1.80
2022-09-03T23:25:37.809Z,1.70
2022-09-03T23:28:10.181Z,1.87
2022-09-03T23:30:37.448Z,1.40
2022-09-03T23:33:04.152Z,1.80
2022-09-03T23:35:47.816Z,1.60
2022-09-03T23:38:26.861Z,1.40
2022-09-03T23:40:59.564Z,1.43
2022-09-03T23:43:51.185Z,1.60
2022-09-03T23:46:32.076Z,1.77
2022-09-03T23:49:38.013Z,1.60
2022-09-03T23:52:29.042Z,1.73
2022-09-03T23:55:22.749Z,1.60
2022-09-03T23:58:15.421Z,1.70
